• Join FlightAware (Why Join?)
  • Login
  • US Flag 
06:39PM EDT


 

Airport Tracker/Info


-or-


 

Live Flight TrackerFlight Track Log ✈ CSN6817 ✈ 18-Aug-2014 ✈ ZWWW / URC - ZWTN / HTN

Flight Track Log - Related Links

Times and Time Zones

All times are in EDT time to prevent confusion due to time zone crossing. See the CSN6817 flight status page for this flight to view local times or setup timezone preferences in your user account.

Time Position Orientation Groundspeed Altitude Reporting Facility
EDT Latitude Longitude Course Direction KTS MPH feet Rate Location/Type
08:25PM 43.4395 86.8828 223° Southwest  Level Estimated
08:26PM 43.3613 86.7851 222° Southwest  Level Estimated
08:27PM 43.2830 86.6877 222° Southwest  Level Estimated
08:28PM 43.2046 86.5905 222° Southwest  Level Estimated
08:29PM 43.1261 86.4936 222° Southwest  Level Estimated
08:30PM 43.0475 86.3969 222° Southwest  Level Estimated
08:31PM 42.9689 86.3005 222° Southwest  Level Estimated
08:32PM 42.8902 86.2043 222° Southwest  Level Estimated
08:33PM 42.8114 86.1084 222° Southwest  Level Estimated
08:34PM 42.7325 86.0127 222° Southwest  Level Estimated
08:35PM 42.6535 85.9172 222° Southwest  Level Estimated
08:36PM 42.5745 85.8220 222° Southwest  Level Estimated
08:37PM 42.4954 85.7270 222° Southwest  Level Estimated
08:38PM 42.4162 85.6323 221° Southwest  Level Estimated
08:39PM 42.3369 85.5378 221° Southwest  Level Estimated
08:40PM 42.2575 85.4436 221° Southwest  Level Estimated
08:41PM 42.1781 85.3495 221° Southwest  Level Estimated
08:42PM 42.0986 85.2558 221° Southwest  Level Estimated
08:43PM 42.0190 85.1622 221° Southwest  Level Estimated
08:44PM 41.9394 85.0689 221° Southwest  Level Estimated
08:45PM 41.8596 84.9758 221° Southwest  Level Estimated
08:46PM 41.7798 84.8830 221° Southwest  Level Estimated
08:47PM 41.7000 84.7904 221° Southwest  Level Estimated
08:48PM 41.6200 84.6980 221° Southwest  Level Estimated
08:49PM 41.5400 84.6058 221° Southwest  Level Estimated
08:50PM 41.4599 84.5139 221° Southwest  Level Estimated
08:51PM 41.3797 84.4222 221° Southwest  Level Estimated
08:52PM 41.2994 84.3307 221° Southwest  Level Estimated
08:53PM 41.2191 84.2395 221° Southwest  Level Estimated
08:54PM 41.1387 84.1484 220° Southwest  Level Estimated
08:55PM 41.0583 84.0576 220° Southwest  Level Estimated
08:56PM 40.9777 83.9670 220° Southwest  Level Estimated
08:57PM 40.8971 83.8767 220° Southwest  Level Estimated
08:58PM 40.8164 83.7865 220° Southwest  Level Estimated
08:59PM 40.7357 83.6966 220° Southwest  Level Estimated
09:00PM 40.6549 83.6069 220° Southwest  Level Estimated
09:01PM 40.5740 83.5174 220° Southwest  Level Estimated
09:02PM 40.4930 83.4282 220° Southwest  Level Estimated
09:03PM 40.4120 83.3391 220° Southwest  Level Estimated
09:04PM 40.3309 83.2503 220° Southwest  Level Estimated
09:05PM 40.2498 83.1616 220° Southwest  Level Estimated
09:06PM 40.1685 83.0732 220° Southwest  Level Estimated
09:07PM 40.0872 82.9850 220° Southwest  Level Estimated
09:08PM 40.0059 82.8970 220° Southwest  Level Estimated
09:09PM 39.9245 82.8092 220° Southwest  Level Estimated
09:10PM 39.8430 82.7217 220° Southwest  Level Estimated
09:11PM 39.7614 82.6343 219° Southwest  Level Estimated
09:12PM 39.6798 82.5471 219° Southwest  Level Estimated
09:13PM 39.5981 82.4602 219° Southwest  Level Estimated
09:14PM 39.5163 82.3734 219° Southwest  Level Estimated
09:15PM 39.4345 82.2869 219° Southwest  Level Estimated
09:16PM 39.3526 82.2005 219° Southwest  Level Estimated
09:17PM 39.2707 82.1144 219° Southwest  Level Estimated
09:18PM 39.1887 82.0285 219° Southwest  Level Estimated
09:19PM 39.1066 81.9427 219° Southwest  Level Estimated
09:20PM 39.0245 81.8572 219° Southwest  Level Estimated
09:21PM 38.9423 81.7719 219° Southwest  Level Estimated
09:22PM 38.8600 81.6867 219° Southwest  Level Estimated
09:23PM 38.7777 81.6018 219° Southwest  Level Estimated
09:24PM 38.6953 81.5170 219° Southwest  Level Estimated
09:25PM 38.6129 81.4325 219° Southwest  Level Estimated
09:26PM 38.5304 81.3481 219° Southwest  Level Estimated
09:27PM 38.4478 81.2639 219° Southwest  Level Estimated
09:28PM 38.3652 81.1799 219° Southwest  Level Estimated
09:29PM 38.2825 81.0962 219° Southwest  Level Estimated
09:30PM 38.1998 81.0126 218° Southwest  Level Estimated
09:31PM 38.1170 80.9292 218° Southwest  Level Estimated
09:32PM 38.0341 80.8460 218° Southwest  Level Estimated
09:33PM 37.9512 80.7629 218° Southwest  Level Estimated
09:34PM 37.8682 80.6801 218° Southwest  Level Estimated
09:35PM 37.7852 80.5974 218° Southwest  Level Estimated
09:36PM 37.7021 80.5150 218° Southwest  Level Estimated
09:37PM 37.6189 80.4327 218° Southwest  Level Estimated
09:38PM 37.5357 80.3506 218° Southwest  Level Estimated
09:39PM 37.4525 80.2687 218° Southwest  Level Estimated
09:40PM 37.3691 80.1870 218° Southwest  Level Estimated
09:41PM 37.2858 80.1054 218° Southwest  Level Estimated
09:42PM 37.2024 80.0240 218° Southwest  Level Estimated
09:43PM 37.1189 79.9428 218° Southwest  Level Estimated
09:44PM 37.0385 79.8649 218° Southwest  Level Estimated
09:45PM 37.0385 79.8649 North  Level Estimated
09:46PM 37.0385 79.8649 North  Level Estimated
09:47PM 37.0385 79.8649 North  Level Estimated
09:48PM 37.0385 79.8649 North  Level Estimated
09:49PM 37.0385 79.8649 North  Level Estimated
09:50PM 37.0385 79.8649 North  Level Estimated
09:51PM 37.0385 79.8649 North  Level Estimated
09:52PM 37.0385 79.8649 North  Level Estimated
09:53PM 37.0385 79.8649 North  Level Estimated
09:54PM 37.0385 79.8649 North  Level Estimated
09:55PM 37.0385 79.8649 North  Level Estimated
09:56PM 37.0385 79.8649 North  Level Estimated
09:57PM 37.0385 79.8649 North  Level Estimated
09:58PM 37.0385 79.8649 North  Level Estimated
09:59PM 37.0385 79.8649 North  Level Estimated
10:00PM 37.0385 79.8649 North  Level Estimated